Metar z pełnej godziny Komunikat METAR ze strony awiacja.imgw.pl Metar G00 EPLL METAR EPLL 271400Z 22005KT 160V250 8000 BKN004 00/M01 Q0996 =